createdAt,value
2022-12-17T00:00:07.301Z,137.50
2022-12-17T00:03:19.545Z,138.40
2022-12-17T00:06:06.608Z,137.30
2022-12-17T00:08:53.537Z,127.70
2022-12-17T00:11:40.380Z,140.20
2022-12-17T00:14:27.097Z,142.00
2022-12-17T00:17:13.846Z,144.50
2022-12-17T00:20:00.603Z,134.30
2022-12-17T00:22:47.577Z,141.40
2022-12-17T00:25:34.932Z,146.80
2022-12-17T00:28:22.154Z,141.40
2022-12-17T00:31:12.258Z,152.20
2022-12-17T00:33:59.152Z,135.20
2022-12-17T00:36:47.157Z,138.80
2022-12-17T00:39:34.046Z,143.90
2022-12-17T00:42:21.022Z,151.10
2022-12-17T00:45:07.959Z,156.60
2022-12-17T00:47:55.065Z,133.10
2022-12-17T00:50:43.692Z,144.80
2022-12-17T00:53:30.480Z,157.80
2022-12-17T00:56:17.382Z,145.90
2022-12-17T00:59:04.112Z,147.90
2022-12-17T01:01:51.063Z,145.10
2022-12-17T01:04:39.372Z,126.10
2022-12-17T01:07:26.483Z,144.90
2022-12-17T01:10:13.315Z,147.60
2022-12-17T01:13:00.280Z,134.40
2022-12-17T01:15:47.081Z,151.40
2022-12-17T01:18:38.420Z,142.30
2022-12-17T01:21:25.141Z,134.60
2022-12-17T01:24:13.509Z,130.50
2022-12-17T01:27:00.688Z,131.40
2022-12-17T01:29:47.336Z,147.50
2022-12-17T01:32:35.359Z,134.60
2022-12-17T01:35:22.638Z,144.90
2022-12-17T01:38:10.477Z,134.10
2022-12-17T01:40:57.092Z,142.70
2022-12-17T01:43:56.411Z,137.10
2022-12-17T01:46:47.553Z,132.30
2022-12-17T01:49:36.835Z,131.50
2022-12-17T01:52:25.442Z,128.40
2022-12-17T01:55:12.781Z,126.40
2022-12-17T01:57:59.499Z,140.30
2022-12-17T02:00:46.507Z,120.70
2022-12-17T02:03:35.983Z,126.50
2022-12-17T02:06:41.191Z,133.80
2022-12-17T02:10:13.422Z,133.00
2022-12-17T02:13:10.131Z,128.30
2022-12-17T02:16:05.634Z,126.30
2022-12-17T02:19:03.922Z,140.30
2022-12-17T02:21:54.607Z,125.90
2022-12-17T02:24:54.832Z,126.90
2022-12-17T02:27:43.441Z,130.10
2022-12-17T02:30:31.054Z,128.60
2022-12-17T02:33:19.872Z,121.10
2022-12-17T02:36:18.920Z,123.70
2022-12-17T02:39:05.857Z,125.00
2022-12-17T02:42:08.540Z,121.20
2022-12-17T02:44:57.204Z,120.20
2022-12-17T02:47:44.999Z,125.40
2022-12-17T02:50:32.658Z,121.20
2022-12-17T02:53:21.998Z,128.80
2022-12-17T02:56:08.773Z,128.60
2022-12-17T02:58:57.258Z,130.10
2022-12-17T03:02:04.182Z,127.60
2022-12-17T03:04:51.308Z,134.50
2022-12-17T03:07:38.303Z,130.60
2022-12-17T03:10:25.797Z,125.90
2022-12-17T03:13:12.744Z,133.80
2022-12-17T03:15:59.614Z,124.70
2022-12-17T03:18:46.340Z,126.90
2022-12-17T03:21:33.365Z,125.40
2022-12-17T03:24:20.188Z,128.80
2022-12-17T03:27:06.879Z,131.50
2022-12-17T03:29:53.503Z,134.50
2022-12-17T03:32:40.596Z,110.10
2022-12-17T03:35:27.600Z,102.60
2022-12-17T03:38:14.315Z,125.30
2022-12-17T03:41:01.003Z,127.20
2022-12-17T03:43:48.101Z,127.30
2022-12-17T03:46:35.270Z,132.60
2022-12-17T03:49:22.004Z,121.20
2022-12-17T03:52:09.172Z,108.60
2022-12-17T03:54:56.184Z,122.20
2022-12-17T03:57:43.116Z,118.70
2022-12-17T04:00:30.260Z,123.00
2022-12-17T04:03:17.425Z,129.20
2022-12-17T04:06:04.462Z,125.90
2022-12-17T04:08:51.253Z,116.60
2022-12-17T04:11:38.092Z,108.00
2022-12-17T04:14:25.015Z,120.50
2022-12-17T04:17:11.744Z,112.30
2022-12-17T04:19:58.646Z,112.10
2022-12-17T04:22:45.743Z,108.70
2022-12-17T04:25:32.581Z,114.30
2022-12-17T04:28:19.620Z,122.20
2022-12-17T04:31:06.761Z,114.40
2022-12-17T04:33:53.588Z,124.80
2022-12-17T04:36:40.103Z,107.70
2022-12-17T04:39:28.448Z,112.70
2022-12-17T04:42:15.066Z,115.80
2022-12-17T04:45:01.956Z,111.60
2022-12-17T04:47:48.725Z,120.60
2022-12-17T04:50:36.080Z,99.90
2022-12-17T04:53:25.280Z,97.20
2022-12-17T04:56:15.630Z,106.40
2022-12-17T04:59:02.641Z,115.70
2022-12-17T05:01:49.910Z,114.10
2022-12-17T05:04:36.633Z,103.10
2022-12-17T05:07:23.701Z,109.80
2022-12-17T05:10:10.406Z,102.70
2022-12-17T05:12:57.327Z,114.40
2022-12-17T05:15:48.330Z,106.20
2022-12-17T05:18:38.390Z,107.90
2022-12-17T05:21:28.100Z,101.80
2022-12-17T05:24:19.341Z,111.40
2022-12-17T05:27:06.629Z,112.90
2022-12-17T05:29:53.690Z,103.20
2022-12-17T05:32:40.378Z,96.30
2022-12-17T05:35:28.745Z,103.20
2022-12-17T05:38:23.101Z,118.00
2022-12-17T05:41:10.905Z,107.80
2022-12-17T05:43:57.793Z,102.00
2022-12-17T05:46:45.060Z,105.30
2022-12-17T05:49:32.474Z,99.00
2022-12-17T05:52:19.479Z,100.60
2022-12-17T05:55:06.456Z,99.00
2022-12-17T05:57:56.453Z,94.30
2022-12-17T06:00:44.066Z,107.40
2022-12-17T06:03:31.223Z,93.00
2022-12-17T06:06:18.042Z,101.80
2022-12-17T06:09:05.136Z,98.40
2022-12-17T06:11:51.766Z,102.90
2022-12-17T06:14:38.787Z,98.50
2022-12-17T06:17:25.648Z,95.50
2022-12-17T06:20:12.617Z,100.60
2022-12-17T06:22:59.209Z,109.90
2022-12-17T06:25:45.916Z,93.90
2022-12-17T06:28:32.926Z,97.20
2022-12-17T06:31:19.705Z,92.70
2022-12-17T06:34:06.449Z,96.20
2022-12-17T06:36:53.543Z,103.30
2022-12-17T06:39:40.176Z,102.80
2022-12-17T06:42:27.198Z,101.50
2022-12-17T06:45:13.907Z,101.30
2022-12-17T06:48:00.782Z,104.40
2022-12-17T06:50:47.476Z,100.30
2022-12-17T06:53:34.478Z,99.70
2022-12-17T06:56:21.689Z,99.20
2022-12-17T06:59:13.103Z,96.10
2022-12-17T07:01:59.900Z,91.90
2022-12-17T07:04:46.846Z,102.50
2022-12-17T07:07:33.702Z,88.70
2022-12-17T07:10:20.370Z,104.40
2022-12-17T07:13:07.440Z,118.60
2022-12-17T07:15:56.669Z,90.50
2022-12-17T07:18:43.282Z,97.00
2022-12-17T07:21:30.227Z,96.40
2022-12-17T07:24:17.355Z,102.30
2022-12-17T07:27:04.103Z,102.40
2022-12-17T07:29:50.944Z,103.80
2022-12-17T07:32:37.757Z,100.00
2022-12-17T07:35:25.384Z,104.70
2022-12-17T07:38:23.505Z,106.30
2022-12-17T07:41:10.358Z,107.30
2022-12-17T07:43:57.054Z,98.50
2022-12-17T07:46:43.787Z,99.50
2022-12-17T07:49:30.859Z,101.10
2022-12-17T07:52:19.580Z,88.00
2022-12-17T07:55:06.590Z,92.30
2022-12-17T07:57:53.493Z,92.50
2022-12-17T08:00:44.658Z,92.50
2022-12-17T08:03:35.328Z,87.20
2022-12-17T08:06:23.156Z,95.20
2022-12-17T08:09:10.041Z,99.60
2022-12-17T08:11:57.239Z,94.90
2022-12-17T08:14:43.944Z,95.60
2022-12-17T08:17:30.879Z,96.20
2022-12-17T08:20:18.042Z,105.50
2022-12-17T08:23:05.027Z,90.70
2022-12-17T08:25:52.024Z,101.20
2022-12-17T08:28:50.541Z,102.40
2022-12-17T08:31:38.455Z,96.20
2022-12-17T08:34:25.716Z,96.10
2022-12-17T08:37:12.848Z,103.20
2022-12-17T08:39:59.570Z,92.50
2022-12-17T08:42:46.373Z,94.40
2022-12-17T08:45:33.764Z,94.80
2022-12-17T08:48:25.872Z,92.80
2022-12-17T08:51:12.948Z,92.40
2022-12-17T08:53:59.792Z,98.10
2022-12-17T08:56:47.059Z,94.70
2022-12-17T08:59:34.228Z,86.70
2022-12-17T09:02:24.611Z,81.60
2022-12-17T09:05:20.566Z,82.30
2022-12-17T09:08:08.044Z,82.00
2022-12-17T09:10:55.168Z,79.80
2022-12-17T09:13:42.284Z,89.00
2022-12-17T09:16:29.402Z,85.50
2022-12-17T09:19:16.588Z,82.60
2022-12-17T09:22:04.294Z,83.40
2022-12-17T09:24:51.800Z,82.80
2022-12-17T09:27:38.922Z,87.60
2022-12-17T09:30:26.730Z,86.00
2022-12-17T09:33:13.583Z,84.20
2022-12-17T09:36:01.383Z,89.20
2022-12-17T09:38:48.291Z,91.00
2022-12-17T09:41:56.328Z,77.60
2022-12-17T09:45:06.900Z,88.50
2022-12-17T09:48:19.134Z,88.90
2022-12-17T09:51:10.647Z,85.10
2022-12-17T09:54:10.095Z,86.20
2022-12-17T09:56:59.536Z,80.30
2022-12-17T09:59:52.334Z,86.40
2022-12-17T10:02:44.054Z,85.10
2022-12-17T10:05:43.936Z,91.90
2022-12-17T10:08:36.118Z,97.80
2022-12-17T10:11:47.311Z,97.70
2022-12-17T10:14:44.465Z,93.40
2022-12-17T10:17:39.940Z,90.00
2022-12-17T10:20:42.367Z,99.20
2022-12-17T10:23:29.385Z,93.30
2022-12-17T10:26:16.349Z,94.20
2022-12-17T10:29:03.067Z,90.90
2022-12-17T10:31:49.671Z,95.20
2022-12-17T10:34:39.286Z,104.50
2022-12-17T10:37:38.000Z,99.60
2022-12-17T10:40:39.615Z,98.40
2022-12-17T10:43:46.535Z,105.00
2022-12-17T10:46:53.811Z,87.90
2022-12-17T10:49:43.844Z,102.00
2022-12-17T10:52:39.808Z,96.70
2022-12-17T10:58:33.131Z,99.70
2022-12-17T11:01:22.316Z,101.20
2022-12-17T11:04:18.751Z,109.80
2022-12-17T11:07:09.908Z,101.20
2022-12-17T11:10:30.041Z,100.90
2022-12-17T11:13:22.204Z,98.10
2022-12-17T11:16:15.624Z,103.70
2022-12-17T11:19:40.419Z,104.00
2022-12-17T11:22:56.795Z,102.50
2022-12-17T11:26:22.500Z,79.20
2022-12-17T11:29:09.922Z,104.30
2022-12-17T11:32:26.041Z,98.80
2022-12-17T11:35:28.347Z,102.60
2022-12-17T11:38:51.538Z,98.80
2022-12-17T11:41:53.423Z,98.80
2022-12-17T11:44:40.231Z,96.20
2022-12-17T11:47:39.801Z,98.50
2022-12-17T11:50:52.983Z,102.70
2022-12-17T11:54:08.409Z,97.10
2022-12-17T11:57:04.225Z,111.60
2022-12-17T12:03:10.525Z,103.30
2022-12-17T12:06:18.083Z,104.60
2022-12-17T12:09:19.020Z,108.70
2022-12-17T12:12:43.744Z,101.60
2022-12-17T12:15:54.811Z,104.70
2022-12-17T12:19:30.780Z,96.10
2022-12-17T12:22:44.787Z,103.30
2022-12-17T12:25:46.821Z,99.70
2022-12-17T12:28:51.301Z,106.40
2022-12-17T12:32:06.300Z,112.30
2022-12-17T12:34:57.284Z,108.00
2022-12-17T12:37:45.358Z,106.30
2022-12-17T12:40:55.575Z,106.50
2022-12-17T12:43:49.371Z,106.10
2022-12-17T12:47:01.127Z,101.60
2022-12-17T12:50:04.414Z,113.80
2022-12-17T12:52:50.983Z,99.90
2022-12-17T12:55:37.679Z,109.50
2022-12-17T12:58:45.727Z,103.20
2022-12-17T13:01:33.260Z,112.00
2022-12-17T13:04:34.772Z,105.80
2022-12-17T13:07:05.677Z,115.40
2022-12-17T13:09:48.482Z,102.90
2022-12-17T13:12:28.383Z,111.10
2022-12-17T13:15:01.052Z,107.00
2022-12-17T13:17:39.849Z,123.20
2022-12-17T13:20:28.393Z,114.90
2022-12-17T13:23:11.742Z,114.60
2022-12-17T13:25:40.583Z,126.80
2022-12-17T13:28:35.639Z,125.60
2022-12-17T13:31:14.272Z,122.40
2022-12-17T13:34:06.767Z,123.70
2022-12-17T13:37:07.308Z,95.70
2022-12-17T13:39:59.708Z,111.20
2022-12-17T13:42:32.821Z,105.90
2022-12-17T13:45:02.132Z,103.30
2022-12-17T13:47:33.381Z,115.20
2022-12-17T13:50:32.659Z,118.80
2022-12-17T13:52:53.600Z,145.00
2022-12-17T13:55:29.290Z,122.70
2022-12-17T13:57:58.104Z,133.00
2022-12-17T14:00:29.539Z,141.50
2022-12-17T14:02:58.067Z,134.00
2022-12-17T14:05:42.538Z,125.40
2022-12-17T14:08:17.285Z,137.50
2022-12-17T14:10:52.241Z,151.10
2022-12-17T14:13:20.496Z,143.30
2022-12-17T14:15:52.943Z,158.80
2022-12-17T14:18:22.184Z,147.80
2022-12-17T14:20:55.653Z,147.40
2022-12-17T14:23:30.855Z,156.60
2022-12-17T14:26:00.082Z,150.90
2022-12-17T14:28:36.374Z,153.50
2022-12-17T14:34:11.592Z,149.40
2022-12-17T14:36:43.019Z,150.60
2022-12-17T14:39:22.694Z,161.50
2022-12-17T14:42:10.398Z,152.40
2022-12-17T14:44:53.331Z,155.10
2022-12-17T14:47:30.732Z,146.70
2022-12-17T14:50:17.195Z,155.90
2022-12-17T14:52:48.957Z,156.00
2022-12-17T14:55:24.401Z,160.20
2022-12-17T14:57:54.600Z,157.70
2022-12-17T15:00:22.803Z,160.00
2022-12-17T15:02:54.622Z,160.30
2022-12-17T15:05:23.183Z,151.40
2022-12-17T15:07:52.188Z,155.10
2022-12-17T15:10:21.749Z,157.20
2022-12-17T15:12:51.683Z,163.80
2022-12-17T15:15:21.955Z,169.10
2022-12-17T15:17:50.124Z,168.70
2022-12-17T15:20:20.882Z,161.70
2022-12-17T15:22:49.012Z,164.80
2022-12-17T15:25:19.452Z,165.20
2022-12-17T15:27:47.704Z,165.40
2022-12-17T15:30:17.935Z,164.00
2022-12-17T15:32:46.469Z,163.90
2022-12-17T15:35:15.026Z,168.40
2022-12-17T15:37:43.149Z,165.70
2022-12-17T15:40:12.193Z,156.90
2022-12-17T15:43:04.425Z,163.90
2022-12-17T15:45:34.329Z,162.30
2022-12-17T15:48:02.566Z,155.10
2022-12-17T15:50:30.731Z,161.70
2022-12-17T15:52:58.996Z,161.50
2022-12-17T15:55:28.110Z,174.30
2022-12-17T15:57:56.628Z,162.10
2022-12-17T16:00:24.922Z,164.30
2022-12-17T16:02:53.460Z,170.30
2022-12-17T16:05:23.744Z,167.20
2022-12-17T16:07:53.240Z,161.80
2022-12-17T16:10:21.789Z,174.80
2022-12-17T16:12:50.157Z,175.20
2022-12-17T16:15:19.371Z,164.10
2022-12-17T16:17:47.535Z,166.30
2022-12-17T16:20:15.824Z,160.80
2022-12-17T16:22:44.757Z,172.70
2022-12-17T16:25:12.977Z,169.80
2022-12-17T16:27:41.870Z,189.30
2022-12-17T16:30:11.532Z,198.90
2022-12-17T16:32:39.987Z,196.10
2022-12-17T16:35:08.722Z,203.30
2022-12-17T16:37:36.988Z,188.70
2022-12-17T16:40:05.945Z,197.70
2022-12-17T16:42:34.039Z,188.70
2022-12-17T16:45:02.105Z,194.60
2022-12-17T16:47:30.357Z,189.50
2022-12-17T16:49:58.588Z,193.70
2022-12-17T16:52:26.738Z,193.10
2022-12-17T16:54:54.871Z,178.80
2022-12-17T16:57:22.943Z,175.70
2022-12-17T16:59:51.169Z,185.40
2022-12-17T17:02:19.883Z,188.80
2022-12-17T17:04:48.404Z,192.70
2022-12-17T17:07:16.597Z,194.00
2022-12-17T17:09:44.776Z,195.40
2022-12-17T17:12:13.782Z,193.40
2022-12-17T17:14:44.575Z,190.40
2022-12-17T17:17:12.626Z,196.50
2022-12-17T17:19:40.745Z,203.20
2022-12-17T17:22:09.008Z,201.70
2022-12-17T17:24:37.093Z,191.20
2022-12-17T17:27:05.108Z,203.40
2022-12-17T17:29:33.324Z,205.30
2022-12-17T17:32:16.835Z,187.40
2022-12-17T17:34:45.189Z,188.50
2022-12-17T17:37:13.900Z,205.40
2022-12-17T17:39:42.276Z,187.10
2022-12-17T17:42:10.580Z,188.70
2022-12-17T17:44:38.613Z,194.50
2022-12-17T17:47:06.831Z,190.00
2022-12-17T17:49:35.046Z,194.10
2022-12-17T17:52:11.442Z,201.80
2022-12-17T17:54:41.029Z,195.70
2022-12-17T17:57:10.418Z,200.90
2022-12-17T17:59:39.831Z,196.30
2022-12-17T18:02:11.044Z,187.40
2022-12-17T18:04:40.295Z,182.30
2022-12-17T18:07:26.610Z,189.10
2022-12-17T18:09:56.395Z,183.20
2022-12-17T18:12:43.461Z,173.90
2022-12-17T18:15:15.354Z,186.60
2022-12-17T18:17:49.296Z,201.70
2022-12-17T18:20:18.264Z,191.90
2022-12-17T18:22:47.090Z,188.70
2022-12-17T18:25:17.895Z,193.00
2022-12-17T18:27:47.357Z,187.90
2022-12-17T18:30:16.575Z,184.60
2022-12-17T18:32:45.771Z,197.20
2022-12-17T18:35:14.160Z,200.50
2022-12-17T18:37:42.592Z,196.90
2022-12-17T18:40:11.373Z,182.30
2022-12-17T18:42:58.379Z,202.90
2022-12-17T18:45:26.725Z,182.90
2022-12-17T18:47:54.980Z,187.70
2022-12-17T18:50:23.280Z,187.70
2022-12-17T18:52:51.744Z,200.90
2022-12-17T18:55:19.900Z,193.20
2022-12-17T18:57:51.205Z,190.30
2022-12-17T19:00:19.680Z,197.40
2022-12-17T19:02:47.996Z,185.60
2022-12-17T19:05:16.725Z,196.40
2022-12-17T19:07:44.983Z,195.80
2022-12-17T19:10:13.311Z,184.80
2022-12-17T19:12:41.587Z,204.50
2022-12-17T19:15:10.518Z,198.60
2022-12-17T19:17:38.777Z,199.30
2022-12-17T19:20:07.768Z,206.40
2022-12-17T19:22:37.609Z,191.80
2022-12-17T19:25:06.005Z,211.90
2022-12-17T19:27:34.282Z,163.30
2022-12-17T19:30:06.643Z,201.00
2022-12-17T19:32:35.876Z,197.30
2022-12-17T19:35:04.525Z,205.10
2022-12-17T19:37:32.669Z,203.30
2022-12-17T19:40:01.781Z,194.10
2022-12-17T19:42:36.742Z,188.20
2022-12-17T19:45:09.678Z,173.20
2022-12-17T19:47:39.451Z,177.70
2022-12-17T19:50:10.539Z,178.50
2022-12-17T19:52:38.962Z,187.90
2022-12-17T19:55:07.636Z,176.80
2022-12-17T19:57:36.920Z,173.20
2022-12-17T20:00:07.479Z,173.50
2022-12-17T20:02:44.623Z,166.40
2022-12-17T20:05:13.426Z,173.60
2022-12-17T20:07:42.578Z,175.70
2022-12-17T20:10:12.188Z,191.30
2022-12-17T20:12:41.460Z,181.90
2022-12-17T20:15:10.309Z,170.70
2022-12-17T20:17:39.273Z,181.00
2022-12-17T20:20:09.444Z,166.80
2022-12-17T20:22:37.879Z,174.10
2022-12-17T20:25:09.601Z,150.10
2022-12-17T20:27:39.508Z,167.10
2022-12-17T20:30:10.736Z,163.00
2022-12-17T20:32:39.913Z,169.70
2022-12-17T20:35:08.598Z,151.50
2022-12-17T20:37:36.821Z,160.90
2022-12-17T20:40:06.032Z,157.60
2022-12-17T20:42:37.142Z,139.30
2022-12-17T20:45:05.932Z,138.40
2022-12-17T20:47:34.102Z,160.50
2022-12-17T20:50:03.865Z,161.30
2022-12-17T20:52:32.135Z,152.20
2022-12-17T20:55:00.281Z,162.30
2022-12-17T20:57:28.769Z,152.10
2022-12-17T20:59:57.082Z,153.00
2022-12-17T21:02:29.421Z,146.20
2022-12-17T21:04:57.803Z,144.50
2022-12-17T21:07:25.936Z,141.40
2022-12-17T21:09:56.094Z,151.60
2022-12-17T21:12:45.204Z,133.30
2022-12-17T21:15:13.613Z,121.70
2022-12-17T21:17:42.357Z,132.60
2022-12-17T21:20:14.937Z,132.60
2022-12-17T21:22:43.926Z,131.00
2022-12-17T21:25:12.377Z,139.30
2022-12-17T21:27:41.147Z,127.70
2022-12-17T21:30:13.422Z,130.40
2022-12-17T21:32:42.217Z,135.00
2022-12-17T21:35:11.721Z,124.60
2022-12-17T21:37:40.259Z,142.40
2022-12-17T21:40:10.389Z,133.20
2022-12-17T21:42:58.479Z,130.90
2022-12-17T21:45:26.752Z,134.00
2022-12-17T21:47:55.252Z,126.00
2022-12-17T21:50:23.398Z,124.80
2022-12-17T21:52:51.705Z,119.50
2022-12-17T21:55:19.962Z,116.70
2022-12-17T21:57:48.493Z,112.20
2022-12-17T22:00:17.563Z,116.00
2022-12-17T22:02:45.852Z,117.30
2022-12-17T22:05:17.805Z,123.30
2022-12-17T22:08:06.600Z,114.90
2022-12-17T22:10:48.478Z,109.30
2022-12-17T22:13:37.246Z,110.00
2022-12-17T22:16:07.901Z,133.10
2022-12-17T22:18:36.502Z,135.00
2022-12-17T22:21:05.148Z,102.50
2022-12-17T22:23:33.317Z,127.60
2022-12-17T22:26:02.124Z,126.40
2022-12-17T22:28:30.353Z,145.10
2022-12-17T22:31:23.795Z,133.70
2022-12-17T22:34:28.910Z,143.90
2022-12-17T22:39:19.251Z,141.90
2022-12-17T22:44:31.511Z,142.10
2022-12-17T22:44:38.629Z,150.60
2022-12-17T22:45:25.977Z,147.10
2022-12-17T22:47:54.612Z,146.00
2022-12-17T22:50:28.664Z,129.50
2022-12-17T22:53:01.528Z,117.30
2022-12-17T22:55:30.637Z,98.00
2022-12-17T22:57:59.503Z,122.60
2022-12-17T23:00:32.294Z,114.90
2022-12-17T23:03:01.044Z,122.80
2022-12-17T23:05:30.304Z,128.10
2022-12-17T23:07:59.904Z,92.80
2022-12-17T23:10:28.977Z,99.80
2022-12-17T23:12:57.551Z,104.10
2022-12-17T23:15:30.414Z,110.10
2022-12-17T23:18:02.179Z,94.80
2022-12-17T23:20:32.579Z,103.40
2022-12-17T23:23:01.364Z,102.90
2022-12-17T23:25:31.468Z,95.20
2022-12-17T23:28:00.218Z,81.50
2022-12-17T23:30:32.185Z,84.70
2022-12-17T23:33:00.720Z,99.50
2022-12-17T23:35:29.825Z,102.40
2022-12-17T23:37:58.580Z,111.10
2022-12-17T23:40:27.088Z,100.30
2022-12-17T23:42:57.637Z,100.70
2022-12-17T23:45:26.035Z,92.80
2022-12-17T23:47:54.475Z,104.00
2022-12-17T23:50:23.117Z,96.00
2022-12-17T23:52:51.692Z,97.10
2022-12-17T23:55:20.507Z,101.20
2022-12-17T23:57:48.911Z,102.50
